Latest Weather Observations for Evans Head

IDN60801

Issued at 10:05 am EST Tuesday 23 September 2014 (issued every 30 minutes, with the page automatically refreshed every 10 minutes)

About weather observations | Map of weather stations | Latest weather observations for NSW | Other Formats
Station Details ID: 058212 Name: EVANS HEAD RAAF BOMBING RANGE AWS Lat: -29.18 Lon: 153.40 Height: 62.5 m
Data from the previous 72 hours. | See also: Recent months at Evans Head
Date/Time
EST
Temp
°C
App
Temp
°C
Dew
Point
Rel
Hum
%
Delta-T
°C
Wind Press
QNH
hPa
Press
MSL
hPa
Rain
since 9 am
mm
Dir
 
Spd
km/h
Gust
km/h
Spd
kts
Gust
kts
23/10:00am 21.0 16.8 9.6 48 6.1 SSE 22 28 12 15 1029.5 1029.4 0.0
23/09:30am 21.7 19.3 12.8 57 5.0 S 17 24 9 13 1029.7 1029.6 0.0
23/09:00am 21.0 18.2 12.7 59 4.7 S 19 24 10 13 1029.7 1029.6 0.0
23/08:30am 19.8 16.8 11.8 60 4.4 S 19 26 10 14 1029.6 1029.5 0.0
23/08:00am 17.1 16.3 13.0 77 2.3 SW 9 11 5 6 1029.4 1029.3 0.0
23/07:30am 14.9 13.5 12.2 84 1.5 SW 11 15 6 8 1029.2 1029.1 0.0
23/07:00am 14.3 12.7 11.6 84 1.4 SW 11 15 6 8 1029.0 1028.9 0.0
23/06:30am 13.8 12.6 11.5 86 1.2 WSW 9 13 5 7 1028.8 1028.7 0.0
23/06:00am 13.2 11.1 11.1 87 1.1 WSW 13 19 7 10 1028.7 1028.6 0.0
23/05:30am 12.8 10.6 10.7 87 1.1 WSW 13 19 7 10 1028.5 1028.4 0.0
23/05:00am 13.3 10.8 11.0 86 1.2 WSW 15 20 8 11 1028.3 1028.2 0.0
23/04:30am 13.1 10.2 11.0 87 1.1 WSW 17 22 9 12 1027.9 1027.8 0.0
23/04:00am 13.1 9.9 11.2 88 1.0 WSW 19 22 10 12 1027.7 1027.6 0.0
23/03:30am 13.2 11.1 11.1 87 1.1 WSW 13 20 7 11 1027.5 1027.4 0.0
23/03:00am 14.0 11.9 11.2 83 1.5 WSW 13 17 7 9 1027.6 1027.5 0.0
23/02:30am 14.4 12.9 10.4 77 2.1 W 9 13 5 7 1027.7 1027.6 0.0
23/02:00am 16.1 13.3 10.0 67 3.2 SSE 15 22 8 12 1027.8 1027.7 0.0
23/01:30am 16.5 13.3 10.1 66 3.4 SSE 17 22 9 12 1028.1 1028.0 0.0
23/01:00am 16.7 13.4 9.6 63 3.7 SSE 17 24 9 13 1028.2 1028.1 0.0
23/12:30am 16.9 13.4 10.1 64 3.6 SSE 19 28 10 15 1028.4 1028.3 0.0
23/12:00am 17.0 13.6 10.4 65 3.5 SSE 19 26 10 14 1028.8 1028.7 0.0
 
Date/Time
EST
Temp
°C
App
Temp
°C
Dew
Point
Rel
Hum
%
Delta-T
°C
Wind Press
QNH
hPa
Press
MSL
hPa
Rain
since 9 am
mm
Dir
 
Spd
km/h
Gust
km/h
Spd
kts
Gust
kts
22/11:30pm 17.0 13.6 10.4 65 3.5 SE 19 24 10 13 1029.1 1029.0 0.0
22/11:00pm 17.3 13.9 10.7 65 3.5 SSE 19 28 10 15 1029.3 1029.2 0.0
22/10:30pm 17.4 14.2 11.4 68 3.3 SSE 19 26 10 14 1029.3 1029.2 0.0
22/10:00pm 17.6 13.9 11.4 67 3.4 SE 22 32 12 17 1029.2 1029.1 0.0
22/09:30pm 17.8 14.7 11.6 67 3.4 SE 19 28 10 15 1029.0 1028.9 0.0
22/09:00pm 17.6 14.3 11.6 68 3.3 SSE 20 26 11 14 1028.9 1028.8 0.0
22/08:30pm 17.3 14.0 10.9 66 3.4 SSE 19 28 10 15 1028.9 1028.8 0.0
22/08:00pm 17.6 13.7 10.9 65 3.6 SSE 22 30 12 16 1028.8 1028.7 0.0
22/07:30pm 17.5 14.0 10.9 65 3.6 SSE 20 30 11 16 1028.8 1028.7 0.0
22/07:00pm 17.4 13.9 10.8 65 3.5 SSE 20 28 11 15 1028.6 1028.5 0.0
22/06:30pm 17.3 13.7 10.7 65 3.5 SSE 20 28 11 15 1028.4 1028.3 0.0
22/06:00pm 17.4 13.8 10.5 64 3.7 SSE 20 26 11 14 1028.3 1028.2 0.0
22/05:30pm 17.7 14.2 11.0 65 3.6 SSE 20 28 11 15 1028.1 1028.0 0.0
22/05:00pm 17.8 14.6 11.1 65 3.6 SSE 19 22 10 12 1028.0 1027.9 0.0
22/04:30pm 18.8 15.6 11.1 61 4.2 S 19 30 10 16 1027.6 1027.5 0.0
22/04:00pm 19.5 16.0 10.8 57 4.7 S 20 28 11 15 1027.5 1027.4 0.0
22/03:30pm 19.7 16.0 10.1 54 5.2 SSE 20 30 11 16 1027.6 1027.5 0.0
22/03:00pm 20.1 15.9 11.1 56 4.9 S 24 33 13 18 1027.5 1027.4 0.0
22/02:30pm 20.5 16.4 11.4 56 5.0 SSE 24 33 13 18 1027.5 1027.4 0.0
22/02:00pm 21.5 18.0 12.1 55 5.3 S 22 32 12 17 1027.8 1027.7 0.0
22/01:30pm 21.7 17.6 11.4 52 5.7 S 24 32 13 17 1027.9 1027.8 0.0
22/01:00pm 21.8 18.0 11.2 51 5.9 S 22 33 12 18 1028.2 1028.1 0.0
22/12:30pm 21.9 17.7 11.0 50 6.0 SSE 24 33 13 18 1028.5 1028.4 0.0
22/12:00pm 21.9 18.1 11.0 50 6.0 S 22 32 12 17 1028.7 1028.6 0.0
22/11:30am 21.6 18.1 12.2 55 5.3 SSE 22 30 12 16 1028.9 1028.8 0.0
22/11:00am 21.6 17.7 12.2 55 5.3 SSE 24 32 13 17 1029.2 1029.1 0.0
22/10:30am 21.1 17.5 13.0 60 4.6 SE 24 35 13 19 1029.5 1029.4 0.0
22/10:00am 20.2 16.3 12.2 60 4.5 SSE 24 32 13 17 1029.6 1029.5 0.0
22/09:30am 20.0 16.2 12.5 62 4.2 SE 24 35 13 19 1029.4 1029.3 0.0
22/09:00am 20.6 17.0 13.1 62 4.3 SE 24 32 13 17 1029.3 1029.2 1.6
22/08:30am 18.6 16.1 13.5 72 2.9 SSE 19 28 10 15 1029.4 1029.3 1.6
22/08:00am 15.6 15.6 15.1 97 0.3 SW 9 13 5 7 1029.3 1029.2 1.6
22/07:30am 15.3 14.8 14.8 97 0.3 W 11 17 6 9 1029.1 1029.0 1.6
22/07:00am 13.8 12.4 13.3 97 0.3 WSW 13 17 7 9 1028.7 1028.6 1.6
22/06:30am 13.2 12.0 12.7 97 0.3 WSW 11 13 6 7 1028.3 1028.2 1.6
22/06:00am 13.0 11.3 12.5 97 0.3 WSW 13 17 7 9 1028.0 1027.9 1.4
22/05:30am 12.8 11.4 12.3 97 0.3 WSW 11 17 6 9 1027.6 1027.5 1.4
22/05:00am 12.7 10.4 11.9 95 0.4 WSW 15 19 8 10 1027.2 1027.1 1.4
22/04:30am 13.3 11.7 12.7 96 0.3 WSW 13 17 7 9 1027.1 1027.0 1.4
22/04:00am 13.7 12.0 12.6 93 0.6 SW 13 19 7 10 1026.8 1026.7 1.4
22/03:30am 13.6 11.9 12.5 93 0.6 WSW 13 17 7 9 1026.9 1026.8 1.4
22/03:00am 13.6 11.6 12.7 94 0.5 WSW 15 17 8 9 1026.9 1026.8 1.4
22/02:30am 13.8 11.6 13.2 96 0.3 WSW 17 22 9 12 1027.2 1027.1 1.4
22/02:00am 14.2 14.4 12.9 92 0.7 WSW 4 11 2 6 1027.2 1027.1 1.4
22/01:30am 15.0 14.5 13.7 92 0.7 S 9 17 5 9 1027.4 1027.3 1.4
22/01:00am 14.8 14.5 14.3 97 0.3 S 9 11 5 6 1027.9 1027.8 1.4
22/12:30am 14.2 12.9 13.7 97 0.3 SW 13 17 7 9 1028.4 1028.3 1.4
22/12:00am 14.5 11.2 14.0 97 0.3 S 24 35 13 19 1028.2 1028.1 1.2
 
Date/Time
EST
Temp
°C
App
Temp
°C
Dew
Point
Rel
Hum
%
Delta-T
°C
Wind Press
QNH
hPa
Press
MSL
hPa
Rain
since 9 am
mm
Dir
 
Spd
km/h
Gust
km/h
Spd
kts
Gust
kts
21/11:30pm 14.8 12.9 14.3 97 0.3 S 17 24 9 13 1028.5 1028.4 0.8
21/11:00pm 16.3 12.1 13.4 83 1.6 S 28 41 15 22 1028.4 1028.3 0.6
21/10:30pm 16.8 13.0 9.2 61 4.0 SE 19 28 10 15 1028.4 1028.3 0.6
21/10:00pm 16.7 13.3 9.1 61 3.9 SE 17 24 9 13 1028.6 1028.5 0.6
21/09:30pm 17.1 12.5 8.3 56 4.5 SE 22 32 12 17 1028.7 1028.6 0.6
21/09:00pm 17.1 12.2 8.5 57 4.4 SE 24 33 13 18 1028.7 1028.6 0.6
21/08:30pm 17.1 12.9 9.8 62 3.8 SSE 22 30 12 16 1028.7 1028.6 0.6
21/08:00pm 17.3 13.3 10.4 64 3.7 SSE 22 32 12 17 1028.5 1028.4 0.6
21/07:30pm 17.2 13.3 10.8 66 3.4 SSE 22 33 12 18 1027.9 1027.8 0.6
21/07:00pm 17.1 13.8 11.6 70 3.0 SSE 20 33 11 18 1027.4 1027.3 0.6
21/06:30pm 17.3 12.7 9.5 60 4.1 SSE 24 39 13 21 1027.0 1026.9 0.6
21/06:00pm 17.0 12.6 10.4 65 3.5 SSE 24 39 13 21 1026.7 1026.6 0.6
21/05:30pm 17.2 12.2 10.8 66 3.4 SSE 28 41 15 22 1026.4 1026.3 0.6
21/05:00pm 17.2 12.1 10.6 65 3.5 S 28 39 15 21 1026.2 1026.1 0.6
21/04:30pm 16.1 12.7 12.5 79 2.0 S 22 30 12 16 1026.3 1026.2 0.6
21/04:00pm 16.8 14.7 14.6 87 1.3 SSW 19 30 10 16 1026.2 1026.1 0.6
21/03:30pm 16.9 14.4 14.2 84 1.5 SSW 20 28 11 15 1026.2 1026.1 0.6
21/03:00pm 16.5 12.9 15.2 92 0.8 S 28 39 15 21 1026.0 1025.9 0.6
21/02:30pm 16.1 11.6 15.3 95 0.5 S 33 54 18 29 1025.9 1025.8 0.4
21/02:17pm 18.7 13.5 13.3 71 3.1 S 33 52 18 28 1025.6 1025.5 0.0
21/02:00pm 20.2 15.7 12.7 62 4.2 S 28 39 15 21 1025.8 1025.7 0.0
21/01:30pm 20.8 17.1 14.0 65 3.9 S 26 37 14 20 1025.9 1025.8 0.0
21/01:00pm 19.9 14.6 12.4 62 4.2 S 32 44 17 24 1026.3 1026.2 0.0
21/12:30pm 20.9 15.9 13.4 62 4.3 S 32 43 17 23 1026.7 1026.6 0.0
21/12:00pm 19.7 14.1 12.0 61 4.3 S 33 43 18 23 1026.4 1026.3 0.0
21/11:30am 19.8 14.3 13.5 67 3.6 S 35 46 19 25 1026.7 1026.6 0.0
21/11:00am 20.2 15.2 13.4 65 3.9 S 32 44 17 24 1027.0 1026.9 0.0
21/10:30am 19.8 15.6 13.5 67 3.6 S 28 39 15 21 1027.7 1027.6 0.0
21/10:00am 18.6 15.7 13.0 70 3.1 SSW 20 32 11 17 1027.8 1027.7 0.0
21/09:30am 17.5 13.5 11.8 69 3.1 SSW 24 33 13 18 1027.8 1027.7 0.0
21/09:00am 16.7 13.2 11.0 69 3.0 SSW 20 30 11 16 1027.9 1027.8 0.4
21/08:30am 17.5 13.7 11.3 67 3.4 SSW 22 35 12 19 1027.5 1027.4 0.4
21/08:00am 16.8 13.4 11.1 69 3.1 SSW 20 30 11 16 1027.3 1027.2 0.4
21/07:30am 15.1 11.4 10.1 72 2.6 SW 20 28 11 15 1027.1 1027.0 0.4
21/07:00am 13.3 9.6 9.5 78 1.9 SW 19 26 10 14 1026.7 1026.6 0.4
21/06:30am 13.6 9.7 9.5 76 2.1 SW 20 32 11 17 1026.2 1026.1 0.4
21/06:00am 12.6 8.6 9.2 80 1.7 SW 20 28 11 15 1025.9 1025.8 0.4
21/05:30am 11.8 8.8 9.4 85 1.2 SW 15 24 8 13 1025.8 1025.7 0.4
21/05:00am 12.1 8.8 9.5 84 1.3 SW 17 26 9 14 1025.4 1025.3 0.4
21/04:30am 12.3 9.0 9.7 84 1.3 SW 17 24 9 13 1024.9 1024.8 0.4
21/04:00am 12.3 8.6 9.5 83 1.4 SW 19 26 10 14 1024.7 1024.6 0.4
21/03:30am 12.8 9.0 9.8 82 1.5 SSW 20 30 11 16 1024.6 1024.5 0.4
21/03:00am 12.2 9.2 10.8 91 0.7 WSW 17 24 9 13 1024.6 1024.5 0.4
21/02:30am 12.5 9.1 11.1 91 0.7 WSW 20 26 11 14 1024.8 1024.7 0.4
21/02:00am 12.7 10.0 11.6 93 0.6 SW 17 24 9 13 1025.2 1025.1 0.4
21/01:30am 13.3 10.9 12.7 96 0.3 SW 17 26 9 14 1025.4 1025.3 0.4
21/01:00am 13.8 10.8 9.3 74 2.3 WSW 15 26 8 14 1025.7 1025.6 0.0
21/12:30am 13.6 10.4 8.4 71 2.6 WSW 15 22 8 12 1025.7 1025.6 0.0
21/12:00am 14.1 11.2 8.3 68 2.9 WSW 13 15 7 8 1025.6 1025.5 0.0
 
Date/Time
EST
Temp
°C
App
Temp
°C
Dew
Point
Rel
Hum
%
Delta-T
°C
Wind Press
QNH
hPa
Press
MSL
hPa
Rain
since 9 am
mm
Dir
 
Spd
km/h
Gust
km/h
Spd
kts
Gust
kts
20/11:30pm 14.3 11.1 8.3 67 3.0 WSW 15 19 8 10 1025.6 1025.5 0.0
20/11:00pm 14.5 11.6 8.0 65 3.2 WSW 13 17 7 9 1025.8 1025.7 0.0
20/10:30pm 15.1 13.0 8.3 64 3.4 WSW 9 17 5 9 1025.7 1025.6 0.0
20/10:00pm 16.1 12.5 8.3 60 3.9 S 17 22 9 12 1025.7 1025.6 0.0
20/09:30pm 16.0 12.4 8.2 60 4.0 S 17 26 9 14 1025.3 1025.2 0.0
20/09:00pm 16.6 12.6 8.3 58 4.2 SSE 19 28 10 15 1025.1 1025.0 0.0
20/08:30pm 16.6 12.6 8.3 58 4.2 SSE 19 24 10 13 1024.8 1024.7 0.0
20/08:00pm 16.5 12.5 9.0 61 3.9 SSE 20 26 11 14 1024.5 1024.4 0.0
20/07:30pm 16.5 12.5 9.2 62 3.8 SSE 20 26 11 14 1024.1 1024.0 0.0
20/07:00pm 16.6 12.2 7.3 54 4.6 SSE 20 26 11 14 1023.8 1023.7 0.0
20/06:30pm 16.6 12.2 7.3 54 4.6 SSE 20 30 11 16 1023.3 1023.2 0.0
20/06:00pm 16.6 12.3 7.8 56 4.4 SSE 20 28 11 15 1022.9 1022.8 0.0
20/05:30pm 16.7 12.8 8.7 59 4.1 SSE 19 26 10 14 1022.5 1022.4 0.0
20/05:00pm 17.4 13.5 9.3 59 4.2 SSE 20 28 11 15 1021.7 1021.6 0.0
20/04:30pm 18.0 14.1 9.6 58 4.4 SSE 20 30 11 16 1021.3 1021.2 0.0
20/04:00pm 18.6 15.0 9.7 56 4.7 SSE 19 28 10 15 1021.2 1021.1 0.0
20/03:30pm 19.1 15.5 10.4 57 4.7 SSE 20 28 11 15 1021.0 1020.8 0.0
20/03:00pm 19.4 15.1 10.9 58 4.6 SSE 24 32 13 17 1020.7 1020.5 0.0
20/02:30pm 20.0 15.9 11.5 58 4.7 SSE 24 32 13 17 1020.7 1020.5 0.0
20/02:00pm 20.3 16.7 10.7 54 5.2 SSE 20 30 11 16 1020.8 1020.6 0.0
20/01:30pm 20.6 16.6 10.4 52 5.5 SSE 22 33 12 18 1020.9 1020.7 0.0
20/01:00pm 20.7 16.9 9.9 50 5.8 SSE 20 28 11 15 1021.1 1021.0 0.0
20/12:30pm 20.3 16.4 9.5 50 5.8 S 20 30 11 16 1021.5 1021.4 0.0
20/12:00pm 20.6 17.7 11.0 54 5.3 S 17 26 9 14 1021.9 1021.8 0.0
20/11:30am 20.2 17.7 10.9 55 5.1 SE 15 22 8 12 1022.3 1022.2 0.0
20/11:00am 19.3 16.8 9.8 54 5.1 SSE 13 20 7 11 1022.6 1022.5 0.0
20/10:30am 19.7 18.0 9.9 53 5.3 S 9 19 5 10 1022.7 1022.6 0.0

Other Formats:

Comma delimited format used in spreadsheet applications
http://www.bom.gov.au/fwo/IDN60801/IDN60801.94598.axf

JavaScript Object Notation format (JSON) in row-major order
http://www.bom.gov.au/fwo/IDN60801/IDN60801.94598.json